Time;durP1;ratioP1;P1;durP2;ratioP2;P2;SDS_P1;SDS_P2;PMS_P1;PMS_P2;Temp;Humidity;BMP_temperature;BMP_pressure;BME280_temperature;BME280_humidity;BME280_pressure;Samples;Min_cycle;Max_cycle;Signal;HPM_P1;HPM_P2
2021/04/08 00:01:24;;;;;;;10.15;5.30;;;1.30;99.90;;;;;;5094568;28;20063;-59
2021/04/08 00:03:50;;;;;;;8.65;5.00;;;1.20;99.90;;;;;;5093502;28;20457;-62
2021/04/08 00:06:15;;;;;;;11.60;5.45;;;1.10;99.90;;;;;;5093720;28;20092;-61
2021/04/08 00:08:41;;;;;;;13.93;5.35;;;1.00;99.90;;;;;;5093537;28;20024;-61
2021/04/08 00:11:07;;;;;;;14.05;6.28;;;0.90;99.90;;;;;;5094613;28;20103;-62
2021/04/08 00:13:34;;;;;;;9.90;5.38;;;0.90;99.90;;;;;;5075869;28;20079;-62
2021/04/08 00:15:59;;;;;;;11.70;5.93;;;0.80;99.90;;;;;;5075200;28;20036;-60
2021/04/08 00:18:25;;;;;;;12.73;5.70;;;0.80;99.90;;;;;;5093910;28;20487;-61
2021/04/08 00:20:51;;;;;;;12.95;5.43;;;0.80;99.90;;;;;;5093028;28;20092;-60
2021/04/08 00:23:17;;;;;;;9.35;4.72;;;0.80;99.90;;;;;;5093906;28;20421;-60
2021/04/08 00:25:42;;;;;;;6.78;4.40;;;0.90;99.90;;;;;;5092386;28;20158;-60
2021/04/08 00:28:08;;;;;;;10.20;4.63;;;0.90;99.90;;;;;;5076024;28;20039;-60
2021/04/08 00:30:42;;;;;;;10.05;4.63;;;0.90;99.90;;;;;;5093907;28;20047;-63
2021/04/08 00:33:12;;;;;;;10.68;4.55;;;0.90;99.90;;;;;;5093653;28;20024;-61
2021/04/08 00:35:39;;;;;;;10.23;4.53;;;0.90;99.90;;;;;;5092881;28;20384;-63
2021/04/08 00:38:05;;;;;;;8.55;4.70;;;0.90;99.90;;;;;;5093701;28;20059;-59
2021/04/08 00:40:31;;;;;;;8.07;4.35;;;0.90;99.90;;;;;;5087634;28;20453;-62
2021/04/08 00:42:57;;;;;;;8.73;4.38;;;0.90;99.90;;;;;;5093099;28;20144;-61
2021/04/08 00:45:22;;;;;;;8.00;5.07;;;0.90;99.90;;;;;;5093233;28;20601;-60
2021/04/08 00:47:48;;;;;;;8.68;5.40;;;0.90;99.90;;;;;;5092913;28;20016;-61
2021/04/08 00:50:15;;;;;;;6.88;4.30;;;0.90;99.90;;;;;;5093383;28;20077;-60
2021/04/08 00:53:06;;;;;;;9.43;4.78;;;0.90;99.90;;;;;;5074774;28;20036;-60
2021/04/08 00:55:38;;;;;;;6.47;4.25;;;0.90;99.90;;;;;;5074639;28;20031;-61
2021/04/08 00:58:05;;;;;;;9.50;4.43;;;0.90;99.90;;;;;;5093475;28;20030;-60
2021/04/08 01:00:32;;;;;;;9.63;4.45;;;1.00;99.90;;;;;;5092622;28;20028;-62
2021/04/08 01:02:59;;;;;;;6.85;4.00;;;1.00;99.90;;;;;;5074383;28;20142;-63
2021/04/08 01:05:25;;;;;;;8.48;4.03;;;1.00;99.90;;;;;;5093099;28;20024;-60
2021/04/08 01:07:51;;;;;;;8.32;3.78;;;1.00;99.90;;;;;;5074341;28;20465;-62
2021/04/08 01:10:18;;;;;;;9.70;4.90;;;1.00;99.90;;;;;;5092972;28;20077;-62
2021/04/08 01:12:43;;;;;;;9.90;4.40;;;1.00;99.90;;;;;;5073732;28;20051;-60
2021/04/08 01:15:10;;;;;;;8.40;4.32;;;1.00;99.90;;;;;;5092992;28;20024;-61
2021/04/08 01:17:52;;;;;;;10.10;4.38;;;1.00;99.90;;;;;;5092222;28;20043;-63
2021/04/08 01:20:58;;;;;;;6.72;4.00;;;1.10;99.90;;;;;;5091041;28;20024;-61
2021/04/08 01:23:43;;;;;;;7.65;3.80;;;1.10;99.90;;;;;;5087400;28;20040;-59
2021/04/08 01:26:30;;;;;;;9.23;4.10;;;1.20;99.90;;;;;;5091589;28;20032;-64
2021/04/08 01:29:40;;;;;;;8.07;4.00;;;1.10;99.90;;;;;;5089366;28;20039;-59
2021/04/08 01:32:07;;;;;;;7.95;4.32;;;1.10;99.90;;;;;;5075587;28;20031;-60
2021/04/08 01:34:35;;;;;;;7.75;4.70;;;1.20;99.90;;;;;;5092017;28;20036;-60
2021/04/08 01:37:06;;;;;;;8.93;5.07;;;1.20;99.90;;;;;;5092022;28;20473;-62
2021/04/08 01:39:33;;;;;;;9.68;4.50;;;1.20;99.90;;;;;;5073522;28;20108;-61
2021/04/08 01:41:59;;;;;;;9.23;4.63;;;1.20;99.90;;;;;;5091957;28;20016;-61
2021/04/08 01:44:26;;;;;;;8.82;5.05;;;1.20;99.90;;;;;;5092139;28;20040;-60
2021/04/08 01:46:59;;;;;;;6.88;4.65;;;1.20;99.90;;;;;;5079838;28;20035;-59
2021/04/08 01:49:28;;;;;;;12.90;4.70;;;1.30;99.90;;;;;;5091934;28;20528;-61
2021/04/08 01:51:57;;;;;;;8.02;4.78;;;1.50;99.90;;;;;;5091797;28;20020;-60
2021/04/08 01:54:26;;;;;;;8.82;4.10;;;1.50;99.90;;;;;;5074405;28;20036;-60
2021/04/08 01:56:57;;;;;;;9.80;4.03;;;1.50;99.40;;;;;;5091228;28;20051;-61
2021/04/08 01:59:24;;;;;;;8.35;4.05;;;1.60;97.30;;;;;;5092106;28;20115;-61
2021/04/08 02:01:51;;;;;;;5.93;3.25;;;1.60;99.90;;;;;;5091343;28;20058;-61
2021/04/08 02:04:18;;;;;;;13.57;3.67;;;1.60;99.50;;;;;;5092179;28;20036;-61
2021/04/08 02:06:46;;;;;;;5.50;3.65;;;1.60;99.60;;;;;;5091481;28;20043;-60
2021/04/08 02:09:12;;;;;;;8.15;3.70;;;1.50;99.60;;;;;;5091394;28;20105;-60
2021/04/08 02:11:39;;;;;;;8.52;3.50;;;1.50;99.90;;;;;;5091409;28;20035;-63
2021/04/08 02:14:06;;;;;;;8.35;3.78;;;1.50;99.90;;;;;;5091685;28;20051;-60
2021/04/08 02:16:32;;;;;;;7.95;3.47;;;1.40;99.90;;;;;;5091919;28;20047;-59
2021/04/08 02:19:01;;;;;;;6.30;4.15;;;1.40;99.90;;;;;;5089917;28;20564;-60
2021/04/08 02:21:28;;;;;;;7.65;3.85;;;1.40;99.90;;;;;;5091815;28;20028;-60
2021/04/08 02:23:55;;;;;;;6.97;4.20;;;1.40;99.90;;;;;;5072943;28;20055;-62
2021/04/08 02:26:21;;;;;;;5.85;3.22;;;1.40;99.90;;;;;;5091592;28;20055;-60
2021/04/08 02:28:48;;;;;;;8.13;3.30;;;1.50;99.90;;;;;;5089970;28;20077;-60
2021/04/08 02:31:16;;;;;;;5.97;2.90;;;1.40;99.90;;;;;;5091691;28;20034;-60
2021/04/08 02:33:41;;;;;;;5.78;3.28;;;1.40;99.90;;;;;;5072876;28;20507;-63
2021/04/08 02:36:07;;;;;;;7.05;3.00;;;1.40;99.90;;;;;;5091371;28;20032;-63
2021/04/08 02:38:35;;;;;;;10.00;3.80;;;1.30;99.90;;;;;;5073742;28;20028;-63
2021/04/08 02:41:07;;;;;;;5.85;3.05;;;1.30;99.90;;;;;;5090298;28;20027;-61
2021/04/08 02:43:33;;;;;;;9.20;3.10;;;1.40;99.90;;;;;;5091809;28;20024;-61
2021/04/08 02:45:59;;;;;;;5.05;2.90;;;1.40;99.90;;;;;;5090663;28;20039;-60
2021/04/08 02:48:25;;;;;;;7.93;3.38;;;1.30;99.90;;;;;;5091155;28;20025;-60
2021/04/08 02:50:58;;;;;;;6.07;3.00;;;1.30;99.90;;;;;;5072721;28;20063;-60
2021/04/08 02:53:38;;;;;;;6.13;3.35;;;1.30;99.90;;;;;;5091250;28;20079;-60
2021/04/08 02:56:29;;;;;;;5.57;3.15;;;1.30;99.90;;;;;;5071978;28;20043;-60
2021/04/08 02:59:00;;;;;;;7.75;2.78;;;1.30;99.90;;;;;;5085571;28;20032;-61
2021/04/08 03:01:28;;;;;;;6.90;3.33;;;1.20;99.90;;;;;;5091378;28;20024;-63
2021/04/08 03:03:57;;;;;;;4.80;2.95;;;1.20;99.90;;;;;;5072593;28;20107;-61
2021/04/08 03:06:25;;;;;;;3.67;2.90;;;1.20;99.90;;;;;;5090739;28;20039;-56
2021/04/08 03:08:57;;;;;;;7.10;3.53;;;1.20;99.90;;;;;;5089078;28;20107;-60
2021/04/08 03:11:28;;;;;;;7.70;3.33;;;1.20;99.90;;;;;;5091278;28;20039;-63
2021/04/08 03:13:58;;;;;;;6.05;3.05;;;1.20;99.90;;;;;;5090108;28;20048;-62
2021/04/08 03:16:26;;;;;;;5.57;2.90;;;1.20;99.90;;;;;;5072921;28;20079;-61
2021/04/08 03:18:55;;;;;;;6.30;2.90;;;1.20;99.90;;;;;;5090205;28;20078;-60
2021/04/08 03:21:26;;;;;;;6.20;3.05;;;1.20;99.90;;;;;;5090770;28;20485;-62
2021/04/08 03:23:53;;;;;;;6.97;2.65;;;1.30;99.90;;;;;;5090103;28;20031;-61
2021/04/08 03:26:25;;;;;;;7.07;2.55;;;1.40;99.70;;;;;;5091163;28;20104;-61
2021/04/08 03:28:52;;;;;;;3.10;2.45;;;1.40;99.60;;;;;;5090415;28;20020;-60
2021/04/08 03:31:19;;;;;;;4.82;2.60;;;1.40;99.90;;;;;;5090712;28;20028;-62
2021/04/08 03:33:46;;;;;;;9.30;2.53;;;1.40;99.90;;;;;;5090307;28;20516;-62
2021/04/08 03:36:15;;;;;;;5.63;2.50;;;1.40;99.60;;;;;;5089809;28;20032;-61
2021/04/08 03:38:41;;;;;;;6.70;2.80;;;1.40;99.30;;;;;;5087728;28;20028;-64
2021/04/08 03:41:07;;;;;;;8.90;2.67;;;1.40;99.50;;;;;;5090577;28;20055;-61
2021/04/08 03:43:35;;;;;;;5.05;2.90;;;1.30;99.90;;;;;;5090718;28;20028;-60
2021/04/08 03:46:03;;;;;;;6.57;2.97;;;1.40;99.90;;;;;;5089962;28;20548;-63
2021/04/08 03:48:31;;;;;;;7.15;2.90;;;1.40;99.10;;;;;;5091054;28;20055;-61
2021/04/08 03:50:57;;;;;;;7.30;2.88;;;1.50;99.50;;;;;;5090045;28;20028;-60
2021/04/08 03:53:24;;;;;;;8.65;3.55;;;1.50;99.20;;;;;;5072863;28;20095;-61
2021/04/08 03:55:50;;;;;;;5.78;2.53;;;1.40;99.60;;;;;;5090371;28;20085;-61
2021/04/08 03:58:20;;;;;;;6.03;2.60;;;1.40;98.60;;;;;;5090446;28;20119;-61
2021/04/08 04:00:47;;;;;;;5.38;2.90;;;1.40;99.90;;;;;;5090367;28;20031;-62
2021/04/08 04:03:15;;;;;;;6.60;3.20;;;1.40;98.70;;;;;;5091244;28;20036;-61
2021/04/08 04:05:43;;;;;;;7.85;3.65;;;1.40;99.10;;;;;;5082947;28;20031;-61
2021/04/08 04:08:10;;;;;;;9.63;3.03;;;1.30;99.90;;;;;;5090872;28;20034;-62
2021/04/08 04:10:37;;;;;;;6.03;3.85;;;1.30;99.20;;;;;;5094441;28;20036;-63
2021/04/08 04:13:05;;;;;;;8.35;3.25;;;1.30;99.40;;;;;;5093072;28;20044;-61
2021/04/08 04:15:35;;;;;;;5.90;3.58;;;1.30;99.90;;;;;;5094440;28;20463;-59
2021/04/08 04:18:05;;;;;;;5.53;3.28;;;1.30;99.90;;;;;;5085674;28;20111;-62
2021/04/08 04:20:32;;;;;;;7.32;2.95;;;1.20;99.90;;;;;;5094301;28;20099;-63
2021/04/08 04:22:58;;;;;;;12.02;3.38;;;1.20;99.90;;;;;;5092738;28;20124;-61
2021/04/08 04:25:24;;;;;;;5.40;3.17;;;1.20;99.90;;;;;;5091725;28;20103;-61
2021/04/08 04:27:50;;;;;;;5.78;3.42;;;1.20;99.90;;;;;;5092837;28;20392;-62
2021/04/08 04:30:20;;;;;;;10.32;3.67;;;1.20;99.90;;;;;;5094097;28;20108;-60
2021/04/08 04:32:46;;;;;;;8.55;3.25;;;1.10;99.90;;;;;;5092906;28;20028;-64
2021/04/08 04:35:12;;;;;;;6.20;2.70;;;1.10;99.90;;;;;;5094022;28;20366;-62
2021/04/08 04:37:38;;;;;;;7.25;3.20;;;1.10;99.90;;;;;;5093408;28;20481;-63
2021/04/08 04:40:05;;;;;;;4.18;3.05;;;1.10;99.90;;;;;;5092931;28;20483;-62
2021/04/08 04:42:31;;;;;;;7.55;3.22;;;1.00;99.90;;;;;;5093489;28;20469;-62
2021/04/08 04:44:57;;;;;;;8.77;3.20;;;1.00;99.90;;;;;;5092884;28;20032;-60
2021/04/08 04:47:23;;;;;;;5.53;2.78;;;1.00;99.90;;;;;;5093514;28;20362;-61
2021/04/08 04:49:49;;;;;;;5.50;2.55;;;1.00;99.90;;;;;;5093202;28;20101;-62
2021/04/08 04:52:15;;;;;;;7.50;3.22;;;1.00;99.90;;;;;;5093388;28;20494;-62
2021/04/08 04:54:41;;;;;;;5.57;3.10;;;1.00;99.90;;;;;;5093719;28;20063;-59
2021/04/08 04:57:07;;;;;;;9.27;2.90;;;1.00;99.90;;;;;;5092330;28;20067;-62
2021/04/08 04:59:33;;;;;;;4.13;2.70;;;1.00;99.90;;;;;;5093088;28;20028;-60
2021/04/08 05:01:58;;;;;;;7.35;2.58;;;1.00;99.90;;;;;;5092735;28;20070;-61
2021/04/08 05:04:24;;;;;;;7.47;3.10;;;1.00;99.90;;;;;;5093051;28;20111;-62
2021/04/08 05:06:50;;;;;;;6.00;3.28;;;1.00;99.90;;;;;;5092733;28;20467;-63
2021/04/08 05:09:15;;;;;;;7.47;3.38;;;1.00;99.90;;;;;;5092974;28;20024;-61
2021/04/08 05:11:41;;;;;;;4.55;3.00;;;1.00;99.90;;;;;;5092983;28;20058;-61
2021/04/08 05:14:07;;;;;;;6.07;3.22;;;1.10;99.90;;;;;;5091909;28;20036;-61
2021/04/08 05:16:32;;;;;;;5.40;3.17;;;1.10;99.90;;;;;;5093330;28;20032;-60
2021/04/08 05:18:58;;;;;;;11.85;3.67;;;1.10;99.90;;;;;;5092251;28;20454;-60
2021/04/08 05:21:24;;;;;;;6.35;2.95;;;1.10;99.90;;;;;;5094056;28;20390;-73
2021/04/08 05:23:49;;;;;;;7.88;3.20;;;1.20;99.90;;;;;;5093067;28;20457;-73
2021/04/08 05:26:15;;;;;;;6.82;3.42;;;1.20;99.90;;;;;;5074699;28;20036;-72
2021/04/08 05:28:41;;;;;;;7.03;3.50;;;1.30;99.90;;;;;;5093200;28;20489;-71
2021/04/08 05:31:06;;;;;;;12.35;3.47;;;1.30;98.70;;;;;;5074381;28;20076;-72
2021/04/08 05:33:32;;;;;;;6.10;3.50;;;1.50;97.70;;;;;;5092375;28;20036;-73
2021/04/08 05:35:58;;;;;;;6.78;3.63;;;1.70;94.30;;;;;;5092064;28;20036;-61
2021/04/08 05:38:23;;;;;;;8.93;3.65;;;1.80;92.60;;;;;;5092544;28;20035;-67
2021/04/08 05:40:50;;;;;;;6.82;3.88;;;1.80;92.60;;;;;;5091634;28;20032;-64
2021/04/08 05:43:16;;;;;;;8.55;3.97;;;1.80;92.10;;;;;;5092778;28;20476;-62
2021/04/08 05:45:44;;;;;;;7.50;3.72;;;1.80;92.40;;;;;;5091847;28;20043;-60
2021/04/08 05:48:10;;;;;;;10.75;6.25;;;1.90;91.10;;;;;;5091663;28;20032;-61
2021/04/08 05:50:35;;;;;;;9.98;4.15;;;1.90;91.50;;;;;;5092481;28;20031;-60
2021/04/08 05:53:01;;;;;;;7.30;4.75;;;1.90;90.60;;;;;;5087046;28;20024;-60
2021/04/08 05:55:26;;;;;;;6.65;3.78;;;1.90;90.60;;;;;;5089675;28;20028;-62
2021/04/08 05:57:52;;;;;;;7.40;3.70;;;2.00;90.00;;;;;;5091421;28;20040;-55
2021/04/08 06:00:19;;;;;;;9.82;3.67;;;2.00;90.30;;;;;;5092206;28;20056;-61
2021/04/08 06:02:44;;;;;;;7.55;3.20;;;2.10;90.40;;;;;;5091948;28;20036;-61
2021/04/08 06:05:11;;;;;;;9.18;2.92;;;2.20;89.40;;;;;;5091375;28;20033;-61
2021/04/08 06:07:36;;;;;;;6.85;3.03;;;2.20;87.10;;;;;;5092139;28;20024;-64
2021/04/08 06:10:03;;;;;;;6.00;2.70;;;2.30;87.70;;;;;;5091302;28;20570;-63
2021/04/08 06:12:28;;;;;;;4.57;2.83;;;2.30;87.60;;;;;;5091928;28;20516;-63
2021/04/08 06:14:55;;;;;;;6.63;3.10;;;2.40;85.70;;;;;;5072989;28;20128;-63
2021/04/08 06:17:21;;;;;;;5.95;2.80;;;2.50;83.70;;;;;;5090541;28;20028;-64
2021/04/08 06:19:47;;;;;;;6.38;3.67;;;2.50;83.10;;;;;;5091925;28;20081;-63
2021/04/08 06:22:13;;;;;;;7.95;3.35;;;2.50;83.90;;;;;;5091144;28;20507;-63
2021/04/08 06:24:39;;;;;;;5.75;2.65;;;2.60;83.60;;;;;;5090777;28;20023;-63
2021/04/08 06:27:06;;;;;;;6.30;2.70;;;2.60;83.10;;;;;;5090837;28;20044;-63
2021/04/08 06:29:32;;;;;;;8.43;3.10;;;2.70;83.00;;;;;;5091670;28;20119;-72
2021/04/08 06:31:58;;;;;;;6.25;2.97;;;2.80;80.90;;;;;;5093327;28;20051;-73
2021/04/08 06:34:23;;;;;;;6.60;2.85;;;2.90;81.30;;;;;;5081555;28;20032;-73
2021/04/08 06:36:49;;;;;;;7.18;2.95;;;3.10;80.10;;;;;;5101258;28;20092;-71
2021/04/08 06:39:15;;;;;;;11.25;3.58;;;3.20;80.20;;;;;;5109369;28;20031;-72
2021/04/08 06:41:41;;;;;;;8.38;2.80;;;3.30;79.70;;;;;;5082817;28;20039;-73
2021/04/08 06:44:08;;;;;;;6.57;3.28;;;3.40;77.30;;;;;;5104159;28;20024;-73
2021/04/08 06:46:39;;;;;;;10.27;3.50;;;3.30;77.30;;;;;;5095378;28;20468;-73
2021/04/08 06:49:23;;;;;;;7.80;3.17;;;3.30;77.80;;;;;;5100659;28;20024;-60
2021/04/08 06:51:54;;;;;;;11.55;3.50;;;3.40;77.80;;;;;;5083537;28;20027;-63
2021/04/08 06:54:20;;;;;;;6.80;3.22;;;3.40;76.10;;;;;;5091066;28;20031;-61
2021/04/08 06:56:47;;;;;;;11.32;3.47;;;3.40;75.60;;;;;;5091539;28;20051;-61
2021/04/08 06:59:15;;;;;;;6.45;4.00;;;3.50;75.80;;;;;;5071741;28;20032;-64
2021/04/08 07:01:42;;;;;;;10.50;4.32;;;3.50;75.40;;;;;;5087647;28;20039;-64
2021/04/08 07:04:10;;;;;;;12.07;4.47;;;3.70;74.60;;;;;;5090968;28;20055;-64
2021/04/08 07:06:36;;;;;;;10.73;4.13;;;3.70;74.50;;;;;;5091173;28;20028;-63
2021/04/08 07:09:08;;;;;;;7.75;4.63;;;3.90;73.70;;;;;;5073140;28;20081;-64
2021/04/08 07:11:35;;;;;;;9.77;4.72;;;3.90;73.00;;;;;;5085949;28;20054;-64
2021/04/08 07:14:02;;;;;;;11.13;4.60;;;3.90;72.70;;;;;;5071514;28;20093;-63
2021/04/08 07:16:30;;;;;;;16.60;5.68;;;4.00;71.70;;;;;;5090920;28;20476;-64
2021/04/08 07:18:57;;;;;;;11.88;4.97;;;4.00;71.10;;;;;;5072699;28;20455;-64
2021/04/08 07:21:30;;;;;;;10.98;4.80;;;4.10;70.40;;;;;;5092304;28;20465;-65
2021/04/08 07:24:07;;;;;;;14.75;4.72;;;4.20;69.60;;;;;;5090447;28;20111;-64
2021/04/08 07:26:59;;;;;;;11.85;4.85;;;4.20;68.50;;;;;;5091143;28;20035;-63
2021/04/08 07:29:44;;;;;;;12.25;4.90;;;4.30;65.80;;;;;;5090719;28;20031;-62
2021/04/08 07:32:24;;;;;;;10.60;4.45;;;4.30;66.50;;;;;;5089301;28;20024;-62
2021/04/08 07:34:58;;;;;;;8.88;4.78;;;4.40;66.50;;;;;;5089741;28;20051;-64
2021/04/08 07:37:29;;;;;;;11.52;4.63;;;4.60;65.00;;;;;;5090625;28;20123;-63
2021/04/08 07:39:57;;;;;;;12.18;4.60;;;4.80;64.70;;;;;;5089618;28;20035;-63
2021/04/08 07:42:28;;;;;;;11.85;5.18;;;5.00;63.90;;;;;;5090676;28;20035;-62
2021/04/08 07:44:56;;;;;;;11.90;5.53;;;5.10;63.20;;;;;;5093330;28;20016;-64
2021/04/08 07:47:40;;;;;;;10.73;5.53;;;5.30;63.80;;;;;;5091095;28;20127;-62
2021/04/08 07:50:05;;;;;;;8.63;4.85;;;5.30;63.30;;;;;;5093825;28;20073;-62
2021/04/08 07:52:31;;;;;;;11.63;5.30;;;5.30;64.00;;;;;;5094436;28;20494;-62
2021/04/08 07:55:07;;;;;;;9.50;5.07;;;5.20;64.70;;;;;;5087761;28;20020;-62
2021/04/08 07:58:01;;;;;;;8.48;5.38;;;5.10;64.50;;;;;;5093357;28;20119;-62
2021/04/08 08:00:32;;;;;;;11.80;5.80;;;5.00;64.90;;;;;;5080319;28;20083;-62
2021/04/08 08:03:06;;;;;;;9.93;5.55;;;5.10;63.00;;;;;;5093306;28;20028;-62
2021/04/08 08:05:36;;;;;;;10.07;5.18;;;5.20;63.00;;;;;;5096399;28;20085;-61
2021/04/08 08:08:19;;;;;;;8.90;5.82;;;5.30;62.10;;;;;;5106464;28;20036;-62
2021/04/08 08:11:18;;;;;;;14.88;5.22;;;5.30;62.50;;;;;;5086475;28;20028;-63
2021/04/08 08:13:48;;;;;;;9.77;5.72;;;5.40;62.30;;;;;;5076591;28;20543;-61
2021/04/08 08:16:22;;;;;;;11.35;5.57;;;5.60;60.50;;;;;;5075800;28;20476;-62
2021/04/08 08:18:49;;;;;;;9.15;5.07;;;5.70;60.30;;;;;;5093465;28;20480;-62
2021/04/08 08:21:35;;;;;;;13.25;5.82;;;5.60;61.40;;;;;;5093297;28;20032;-62
2021/04/08 08:24:06;;;;;;;13.77;4.78;;;5.70;61.10;;;;;;5092707;28;20477;-61
2021/04/08 08:26:36;;;;;;;8.02;4.63;;;5.90;60.90;;;;;;5093030;28;20047;-62
2021/04/08 08:29:02;;;;;;;;;;;6.10;58.00;;;;;;5075667;28;20086;-61
2021/04/08 08:31:41;;;;;;;8.52;3.85;;;6.10;58.10;;;;;;5092602;28;20349;-63
2021/04/08 08:34:10;;;;;;;7.70;4.53;;;6.10;56.70;;;;;;5092713;28;20058;-61
2021/04/08 08:36:42;;;;;;;10.65;3.88;;;6.10;56.70;;;;;;5093204;28;20040;-63
2021/04/08 08:39:13;;;;;;;10.20;4.07;;;6.10;58.00;;;;;;5092457;28;20111;-62
2021/04/08 08:41:39;;;;;;;9.00;4.55;;;6.10;57.10;;;;;;5093462;28;20024;-65
2021/04/08 08:44:07;;;;;;;12.57;5.05;;;6.10;55.20;;;;;;5092832;28;20032;-61
2021/04/08 08:46:57;;;;;;;8.88;4.00;;;6.20;54.60;;;;;;5093184;28;20050;-63
2021/04/08 08:49:33;;;;;;;9.80;3.90;;;6.10;55.70;;;;;;5092994;28;20048;-61
2021/04/08 08:52:01;;;;;;;5.70;3.35;;;6.20;57.00;;;;;;5085290;28;20092;-62
2021/04/08 08:54:28;;;;;;;9.20;4.38;;;6.30;57.60;;;;;;5074294;28;20028;-63
2021/04/08 08:56:56;;;;;;;6.47;3.53;;;6.50;56.10;;;;;;5092254;28;20079;-64
2021/04/08 08:59:22;;;;;;;6.30;3.00;;;6.60;55.80;;;;;;5092772;28;20028;-63
2021/04/08 09:01:48;;;;;;;6.78;3.95;;;6.70;55.10;;;;;;5093271;28;20496;-62
2021/04/08 09:04:13;;;;;;;7.97;3.20;;;6.80;53.70;;;;;;5091519;28;20035;-63
2021/04/08 09:06:42;;;;;;;8.50;3.40;;;6.90;52.70;;;;;;5091957;28;20050;-62
2021/04/08 09:09:10;;;;;;;9.15;3.33;;;6.90;52.40;;;;;;5092617;28;20028;-61
2021/04/08 09:11:38;;;;;;;9.07;3.75;;;6.90;52.00;;;;;;5092946;28;20023;-63
2021/04/08 09:14:05;;;;;;;4.82;2.90;;;6.90;51.40;;;;;;5092947;28;20127;-62
2021/04/08 09:16:41;;;;;;;7.60;3.10;;;7.00;52.40;;;;;;5092282;28;20032;-62
2021/04/08 09:19:09;;;;;;;5.97;2.90;;;7.10;51.00;;;;;;5073788;28;20027;-65
2021/04/08 09:21:47;;;;;;;5.07;3.40;;;7.30;53.10;;;;;;5092659;28;20589;-63
2021/04/08 09:24:31;;;;;;;6.43;3.03;;;7.40;51.90;;;;;;5080726;28;20588;-63
2021/04/08 09:26:58;;;;;;;6.60;3.50;;;7.40;50.70;;;;;;5087990;28;20106;-64
2021/04/08 09:29:42;;;;;;;6.82;3.20;;;7.30;51.00;;;;;;5092755;28;20023;-64
2021/04/08 09:32:32;;;;;;;9.25;3.70;;;7.10;51.60;;;;;;5065778;28;20161;-64
2021/04/08 09:35:06;;;;;;;8.27;3.47;;;6.90;52.20;;;;;;5092630;28;20024;-63
2021/04/08 09:37:44;;;;;;;8.35;3.70;;;6.80;52.10;;;;;;5093217;28;20039;-64
2021/04/08 09:40:22;;;;;;;4.68;3.10;;;6.70;53.20;;;;;;5091436;28;20052;-64
2021/04/08 09:42:52;;;;;;;9.65;2.90;;;6.80;53.10;;;;;;5092318;28;20069;-64
2021/04/08 09:45:18;;;;;;;4.95;2.65;;;7.00;53.30;;;;;;5091689;28;20108;-63
2021/04/08 09:47:44;;;;;;;4.25;2.75;;;7.40;50.40;;;;;;5091916;28;20117;-64
2021/04/08 09:50:12;;;;;;;5.35;2.65;;;7.50;50.20;;;;;;5090491;28;20516;-64
2021/04/08 09:52:54;;;;;;;11.98;3.22;;;7.70;48.70;;;;;;5088076;28;20024;-64
2021/04/08 09:55:32;;;;;;;5.00;2.83;;;7.60;49.00;;;;;;5087988;28;20031;-63
2021/04/08 09:58:05;;;;;;;9.18;3.00;;;7.50;48.80;;;;;;5092893;28;20072;-64
2021/04/08 10:00:32;;;;;;;6.28;3.58;;;7.40;49.60;;;;;;5091010;28;20044;-64
2021/04/08 10:03:04;;;;;;;7.72;3.25;;;7.40;48.30;;;;;;5091029;28;20108;-64
2021/04/08 10:05:40;;;;;;;8.88;3.78;;;7.40;50.30;;;;;;5056525;28;20032;-64
2021/04/08 10:08:08;;;;;;;8.60;3.05;;;7.40;50.70;;;;;;5091320;28;20368;-61
2021/04/08 10:10:44;;;;;;;9.57;3.35;;;7.40;49.70;;;;;;5073697;28;20028;-64
2021/04/08 10:13:27;;;;;;;7.85;3.80;;;7.40;51.00;;;;;;5091027;28;20076;-64
2021/04/08 10:16:01;;;;;;;9.52;4.47;;;7.40;51.70;;;;;;5088859;28;20055;-63
2021/04/08 10:18:33;;;;;;;13.00;5.95;;;7.50;52.10;;;;;;5091527;28;20491;-63
2021/04/08 10:21:04;;;;;;;17.75;6.45;;;7.40;51.10;;;;;;5091225;28;20020;-64
2021/04/08 10:23:29;;;;;;;6.88;3.97;;;7.30;50.60;;;;;;5091725;28;20032;-63
2021/04/08 10:25:57;;;;;;;6.95;3.17;;;7.30;50.80;;;;;;5091448;28;20027;-64
2021/04/08 10:28:23;;;;;;;6.72;3.58;;;7.30;52.30;;;;;;5090951;28;20111;-63
2021/04/08 10:30:48;;;;;;;7.30;4.03;;;7.20;51.50;;;;;;5090970;28;20107;-62
2021/04/08 10:33:16;;;;;;;7.82;3.78;;;7.10;51.50;;;;;;5072721;28;20100;-64
2021/04/08 10:35:42;;;;;;;7.85;3.42;;;7.00;51.90;;;;;;5091316;28;20023;-64
2021/04/08 10:38:09;;;;;;;10.27;3.50;;;7.00;51.70;;;;;;5090566;28;20487;-64
2021/04/08 10:40:35;;;;;;;7.45;3.63;;;6.90;51.90;;;;;;5091600;28;20084;-63
2021/04/08 10:43:15;;;;;;;7.60;3.72;;;6.90;51.90;;;;;;5090700;28;20082;-63
2021/04/08 10:45:58;;;;;;;10.90;3.60;;;7.00;51.10;;;;;;5090849;28;20024;-64
2021/04/08 10:48:27;;;;;;;8.00;4.10;;;7.10;49.40;;;;;;5091613;28;20092;-63
2021/04/08 10:50:54;;;;;;;7.47;3.53;;;7.00;50.60;;;;;;5091419;28;20120;-63
2021/04/08 10:53:21;;;;;;;10.07;4.47;;;7.00;52.20;;;;;;5071883;28;20189;-63
2021/04/08 10:55:48;;;;;;;8.60;3.47;;;7.00;51.20;;;;;;5090720;28;20123;-64
2021/04/08 10:58:28;;;;;;;10.65;4.50;;;7.00;51.50;;;;;;5090167;28;20500;-63
2021/04/08 11:00:57;;;;;;;8.20;4.85;;;7.10;51.90;;;;;;5090903;28;20028;-64
2021/04/08 11:03:23;;;;;;;10.73;4.47;;;7.10;52.50;;;;;;5090264;28;20088;-64
2021/04/08 11:05:49;;;;;;;11.80;4.82;;;7.20;51.70;;;;;;5091108;28;20111;-64
2021/04/08 11:08:15;;;;;;;9.32;4.43;;;7.40;51.50;;;;;;5090336;28;20044;-63
2021/04/08 11:10:42;;;;;;;10.98;4.78;;;7.40;51.60;;;;;;5091472;28;20024;-63
2021/04/08 11:13:10;;;;;;;8.95;5.13;;;7.50;51.30;;;;;;5089027;28;20127;-64
2021/04/08 11:15:38;;;;;;;10.80;5.00;;;7.60;50.50;;;;;;5097166;28;20031;-65
2021/04/08 11:18:11;;;;;;;14.10;4.97;;;7.70;50.90;;;;;;5100558;28;20143;-64
2021/04/08 11:20:42;;;;;;;9.95;4.40;;;7.80;50.70;;;;;;5094525;28;20028;-65
2021/04/08 11:23:10;;;;;;;6.93;4.63;;;8.00;50.00;;;;;;5093716;28;20477;-64
2021/04/08 11:25:37;;;;;;;8.13;4.38;;;8.20;50.00;;;;;;5095171;28;20445;-63
2021/04/08 11:28:04;;;;;;;9.68;4.60;;;8.40;49.60;;;;;;5075935;28;20093;-64
2021/04/08 11:30:48;;;;;;;10.20;4.70;;;8.70;48.20;;;;;;5094944;28;20446;-64
2021/04/08 11:33:20;;;;;;;10.63;4.20;;;9.00;49.10;;;;;;5094255;28;20032;-64
2021/04/08 11:35:46;;;;;;;8.90;4.35;;;9.30;47.00;;;;;;5094968;28;20032;-65
2021/04/08 11:38:14;;;;;;;6.82;3.80;;;9.50;46.40;;;;;;5076189;28;20036;-63
2021/04/08 11:41:00;;;;;;;13.32;3.90;;;9.70;46.10;;;;;;5094908;28;20039;-64
2021/04/08 11:43:31;;;;;;;8.70;3.22;;;9.50;46.00;;;;;;5083717;28;20050;-64
2021/04/08 11:46:02;;;;;;;6.93;3.28;;;9.50;45.10;;;;;;5094158;28;20027;-65
2021/04/08 11:48:41;;;;;;;9.05;2.92;;;9.40;44.10;;;;;;5094928;28;20020;-64
2021/04/08 11:51:07;;;;;;;8.32;3.63;;;9.40;44.40;;;;;;5093031;28;20469;-64
2021/04/08 11:53:37;;;;;;;7.50;3.20;;;9.30;44.60;;;;;;5094182;28;20048;-64
2021/04/08 11:56:21;;;;;;;7.30;3.13;;;9.20;44.00;;;;;;5093739;28;20034;-64
2021/04/08 11:58:47;;;;;;;6.07;2.75;;;9.20;44.30;;;;;;5094350;28;20032;-62
2021/04/08 12:01:15;;;;;;;7.28;3.15;;;9.60;44.80;;;;;;5093908;28;20081;-63
2021/04/08 12:03:45;;;;;;;9.18;2.67;;;10.20;46.40;;;;;;5075830;28;20126;-64
2021/04/08 12:06:13;;;;;;;5.47;3.05;;;11.10;43.80;;;;;;5093943;28;20027;-63
2021/04/08 12:08:45;;;;;;;5.30;2.50;;;11.60;40.00;;;;;;5094607;28;20058;-64
2021/04/08 12:11:12;;;;;;;3.38;2.72;;;11.80;38.90;;;;;;5093884;28;20024;-64
2021/04/08 12:13:39;;;;;;;4.93;2.85;;;11.60;39.70;;;;;;5094430;28;20044;-68
2021/04/08 12:16:06;;;;;;;5.80;2.95;;;11.00;40.90;;;;;;5093128;28;20196;-63
2021/04/08 12:18:32;;;;;;;5.43;3.33;;;10.60;41.40;;;;;;5099244;28;20020;-61
2021/04/08 12:21:09;;;;;;;5.90;2.83;;;10.50;42.80;;;;;;5097387;28;20106;-65
2021/04/08 12:23:36;;;;;;;4.30;2.88;;;10.30;41.90;;;;;;5093456;28;20040;-64
2021/04/08 12:26:02;;;;;;;6.13;2.60;;;10.20;42.60;;;;;;5093212;28;20028;-64
2021/04/08 12:28:28;;;;;;;7.28;3.20;;;10.20;43.90;;;;;;5093278;28;20024;-64
2021/04/08 12:31:01;;;;;;;7.20;2.95;;;10.30;42.90;;;;;;5092998;28;20153;-61
2021/04/08 12:33:30;;;;;;;7.10;2.95;;;10.40;43.30;;;;;;5093752;28;20039;-63
2021/04/08 12:35:58;;;;;;;7.32;3.42;;;10.50;43.40;;;;;;5093681;28;20223;-60
2021/04/08 12:38:24;;;;;;;7.22;2.28;;;10.60;41.90;;;;;;5093216;28;20024;-63
2021/04/08 12:40:51;;;;;;;4.63;2.60;;;10.60;41.50;;;;;;5093531;28;20027;-62
2021/04/08 12:43:17;;;;;;;6.78;2.88;;;11.10;41.80;;;;;;5074341;28;20077;-63
2021/04/08 12:45:43;;;;;;;3.80;2.33;;;11.20;41.70;;;;;;5093554;28;20032;-63
2021/04/08 12:48:09;;;;;;;5.32;2.95;;;11.30;41.60;;;;;;5092820;28;20449;-63
2021/04/08 12:50:38;;;;;;;4.35;2.30;;;11.50;41.60;;;;;;5093141;28;20114;-62
2021/04/08 12:53:04;;;;;;;3.33;2.22;;;11.90;40.30;;;;;;5092849;28;20023;-63
2021/04/08 12:55:29;;;;;;;5.88;2.75;;;12.60;39.30;;;;;;5093195;28;20441;-63
2021/04/08 12:57:55;;;;;;;4.97;2.90;;;13.00;37.40;;;;;;5093056;28;20044;-64
2021/04/08 13:00:23;;;;;;;7.18;3.00;;;13.00;38.30;;;;;;5092263;28;20039;-62
2021/04/08 13:02:49;;;;;;;5.40;2.67;;;13.20;37.30;;;;;;5085321;28;20044;-64
2021/04/08 13:05:15;;;;;;;4.75;2.40;;;13.30;38.00;;;;;;5087312;28;20075;-63
2021/04/08 13:07:41;;;;;;;7.07;2.65;;;13.40;36.80;;;;;;5093118;28;20063;-63